aviador You're here:

SBFL Decoded Metar

FLORIANOPOLIS in BRAZIL
Report Time2018-07-18 20:00:00
UTC Time2018-07-18 20:17:35
Flight Rules vfr VFR
Wind320° at 03 kt
W.Decomp.*RWY 32: 2.8 kt HW 1.0 kt RCW
RWY 03: 1.9 kt HW 2.3 kt LCW
W.Rank320° ranks 7
Current wind is below 320° avg. (6.2)
Visibility9999 m
Phenomena:N/A
Clouds:N/A
Expected CloudBase > 1,600 ft AGL from Temp-Dew spread
CeilingNone
Temp22°C (ISA +7)
Dew Point18°C (78% RH)
QNH1015 hPa
Density Alt1,040 ft
Elevation16 ft
Report Wrong Elevation
Raw Report
SBFL 182000Z 32003KT CAVOK 22/18 Q1015=

Extra information for SBFL:More info

Metar Taf Metar & Taf Last 4 Metars F.Rules Stats Wind Profile Meteogram Temp Stats Airport Information Weather charts Add Link Nearby VenuesMetar ALERT Operation Metar Decoded Social comments